createdAt,value
2019-04-16T00:01:49.469Z,93902.17
2019-04-16T00:04:28.325Z,93894.38
2019-04-16T00:07:19.273Z,93902.36
2019-04-16T00:09:56.591Z,93899.56
2019-04-16T00:12:31.005Z,93897.86
2019-04-16T00:15:03.866Z,93898.82
2019-04-16T00:17:36.953Z,93895.72
2019-04-16T00:20:11.166Z,93891.85
2019-04-16T00:22:55.646Z,93892.58
2019-04-16T00:25:28.606Z,93882.43
2019-04-16T00:28:01.559Z,93882.08
2019-04-16T00:30:35.650Z,93879.59
2019-04-16T00:33:10.694Z,93875.42
2019-04-16T00:35:46.460Z,93878.04
2019-04-16T00:38:22.410Z,93873.14
2019-04-16T00:40:53.246Z,93873.19
2019-04-16T00:43:26.188Z,93867.42
2019-04-16T00:45:59.805Z,93866.11
2019-04-16T00:48:33.010Z,93862.17
2019-04-16T00:51:06.219Z,93860.69
2019-04-16T00:53:39.770Z,93860.86
2019-04-16T00:56:13.451Z,93867.48
2019-04-16T00:58:49.390Z,93858.70
2019-04-16T01:01:22.533Z,93854.09
2019-04-16T01:03:55.347Z,93849.05
2019-04-16T01:06:29.246Z,93846.77
2019-04-16T01:09:02.409Z,93854.92
2019-04-16T01:11:35.385Z,93850.85
2019-04-16T01:14:08.754Z,93849.55
2019-04-16T01:16:41.771Z,93851.11
2019-04-16T01:19:14.851Z,93846.48
2019-04-16T01:21:49.886Z,93841.53
2019-04-16T01:24:23.006Z,93846.69
2019-04-16T01:26:58.380Z,93839.33
2019-04-16T01:29:33.858Z,93844.80
2019-04-16T01:32:23.674Z,93843.56
2019-04-16T01:35:01.087Z,93846.53
2019-04-16T01:37:35.706Z,93846.31
2019-04-16T01:40:10.654Z,93846.02
2019-04-16T01:42:43.827Z,93846.31
2019-04-16T01:45:16.766Z,93848.71
2019-04-16T01:47:49.766Z,93842.91
2019-04-16T01:50:23.027Z,93843.84
2019-04-16T01:52:55.926Z,93842.83
2019-04-16T01:55:28.886Z,93839.59
2019-04-16T01:58:02.839Z,93847.00
2019-04-16T02:00:36.518Z,93844.09
2019-04-16T02:03:10.688Z,93845.86
2019-04-16T02:05:43.687Z,93846.47
2019-04-16T02:08:16.727Z,93845.83
2019-04-16T02:10:50.526Z,93840.16
2019-04-16T02:13:23.805Z,93845.31
2019-04-16T02:15:56.652Z,93840.10
2019-04-16T02:18:30.409Z,93833.19
2019-04-16T02:21:03.686Z,93832.20
2019-04-16T02:23:36.433Z,93835.99
2019-04-16T02:26:09.688Z,93842.66
2019-04-16T02:28:43.047Z,93838.09
2019-04-16T02:31:16.416Z,93834.80
2019-04-16T02:33:49.928Z,93838.47
2019-04-16T02:36:23.326Z,93830.73
2019-04-16T02:38:56.887Z,93829.91
2019-04-16T02:41:30.266Z,93836.69
2019-04-16T02:44:03.129Z,93833.72
2019-04-16T02:46:36.008Z,93832.11
2019-04-16T02:49:09.535Z,93830.52
2019-04-16T02:51:43.966Z,93825.44
2019-04-16T02:54:19.476Z,93826.63
2019-04-16T02:57:10.806Z,93826.25
2019-04-16T02:59:48.166Z,93821.17
2019-04-16T03:02:23.697Z,93820.03
2019-04-16T03:05:01.717Z,93817.86
2019-04-16T03:07:34.866Z,93808.84
2019-04-16T03:10:12.284Z,93817.05
2019-04-16T03:12:42.327Z,93811.11
2019-04-16T03:15:16.886Z,93815.45
2019-04-16T03:17:50.054Z,93808.72
2019-04-16T03:20:23.920Z,93807.75
2019-04-16T03:22:57.562Z,93808.72
2019-04-16T03:25:30.482Z,93805.17
2019-04-16T03:28:03.328Z,93806.28
2019-04-16T03:30:42.275Z,93803.81
2019-04-16T03:33:14.274Z,93810.64
2019-04-16T03:35:48.226Z,93806.84
2019-04-16T03:38:21.427Z,93808.85
2019-04-16T03:40:56.084Z,93808.28
2019-04-16T03:43:32.163Z,93804.16
2019-04-16T03:46:04.029Z,93799.29
2019-04-16T03:48:37.588Z,93796.83
2019-04-16T03:51:10.717Z,93793.25
2019-04-16T03:53:46.576Z,93797.25
2019-04-16T03:56:18.688Z,93798.91
2019-04-16T03:58:52.095Z,93799.89
2019-04-16T04:01:25.096Z,93802.56
2019-04-16T04:03:58.640Z,93799.38
2019-04-16T04:06:31.453Z,93793.84
2019-04-16T04:09:05.887Z,93797.20
2019-04-16T04:11:41.166Z,93798.36
2019-04-16T04:14:13.726Z,93794.30
2019-04-16T04:16:46.807Z,93794.27
2019-04-16T04:19:19.705Z,93792.77
2019-04-16T04:21:53.750Z,93794.63
2019-04-16T04:24:28.504Z,93805.41
2019-04-16T04:27:02.026Z,93801.62
2019-04-16T04:29:34.947Z,93803.23
2019-04-16T04:32:07.926Z,93797.92
2019-04-16T04:34:40.987Z,93794.49
2019-04-16T04:37:13.968Z,93800.16
2019-04-16T04:39:47.535Z,93803.06
2019-04-16T04:42:20.448Z,93809.62
2019-04-16T04:44:53.446Z,93805.91
2019-04-16T04:47:26.187Z,93807.24
2019-04-16T04:49:59.595Z,93801.94
2019-04-16T04:52:33.787Z,93803.66
2019-04-16T04:55:07.249Z,93804.97
2019-04-16T04:57:42.006Z,93805.44
2019-04-16T05:00:15.039Z,93810.81
2019-04-16T05:02:48.046Z,93805.86
2019-04-16T05:05:25.559Z,93809.48
2019-04-16T05:07:59.733Z,93808.25
2019-04-16T05:10:31.626Z,93808.19
2019-04-16T05:13:04.926Z,93812.41
2019-04-16T05:15:38.333Z,93817.36
2019-04-16T05:18:11.166Z,93819.09
2019-04-16T05:20:46.757Z,93814.13
2019-04-16T05:23:18.649Z,93817.27
2019-04-16T05:25:51.694Z,93820.98
2019-04-16T05:28:24.626Z,93824.63
2019-04-16T05:30:57.633Z,93819.27
2019-04-16T05:33:30.585Z,93821.72
2019-04-16T05:36:03.386Z,93831.77
2019-04-16T05:38:37.927Z,93820.70
2019-04-16T05:41:13.632Z,93834.55
2019-04-16T05:43:45.256Z,93823.48
2019-04-16T05:46:18.934Z,93827.56
2019-04-16T05:48:54.007Z,93827.47
2019-04-16T05:51:28.271Z,93828.27
2019-04-16T05:54:12.163Z,93827.47
2019-04-16T05:56:47.554Z,93830.02
2019-04-16T05:59:20.566Z,93833.52
2019-04-16T06:01:57.373Z,93834.06
2019-04-16T06:04:29.426Z,93835.49
2019-04-16T06:07:07.175Z,93829.95
2019-04-16T06:09:37.287Z,93839.81
2019-04-16T06:12:10.247Z,93833.81
2019-04-16T06:14:46.478Z,93841.08
2019-04-16T06:17:21.214Z,93836.27
2019-04-16T06:19:58.434Z,93840.77
2019-04-16T06:22:32.907Z,93833.53
2019-04-16T06:25:09.507Z,93836.47
2019-04-16T06:27:44.666Z,93834.87
2019-04-16T06:30:20.005Z,93830.27
2019-04-16T06:33:06.521Z,93830.09
2019-04-16T06:35:44.002Z,93830.77
2019-04-16T06:38:18.733Z,93836.32
2019-04-16T06:41:05.306Z,93828.44
2019-04-16T06:43:46.275Z,93828.84
2019-04-16T06:46:24.773Z,93832.52
2019-04-16T06:49:03.486Z,93829.85
2019-04-16T06:52:08.306Z,93838.05
2019-04-16T06:54:47.007Z,93836.79
2019-04-16T06:57:27.505Z,93834.44
2019-04-16T07:00:02.309Z,93836.04
2019-04-16T07:02:37.439Z,93839.28
2019-04-16T07:05:11.006Z,93843.61
2019-04-16T07:08:01.286Z,93833.88
2019-04-16T07:10:44.412Z,93842.05
2019-04-16T07:13:11.329Z,93842.27
2019-04-16T07:15:44.625Z,93839.11
2019-04-16T07:18:20.498Z,93842.30
2019-04-16T07:20:53.426Z,93842.68
2019-04-16T07:23:26.734Z,93846.33
2019-04-16T07:26:03.299Z,93848.81
2019-04-16T07:28:36.843Z,93842.23
2019-04-16T07:31:31.858Z,93844.02
2019-04-16T07:33:57.950Z,93836.97
2019-04-16T07:36:33.205Z,93838.16
2019-04-16T07:39:28.789Z,93834.73
2019-04-16T07:42:11.785Z,93837.28
2019-04-16T07:44:56.751Z,93833.64
2019-04-16T07:47:31.227Z,93838.12
2019-04-16T07:50:05.794Z,93835.19
2019-04-16T07:52:41.912Z,93836.14
2019-04-16T07:55:26.509Z,93839.91
2019-04-16T07:58:00.254Z,93847.63
2019-04-16T08:00:32.952Z,93843.33
2019-04-16T08:03:08.530Z,93843.98
2019-04-16T08:05:41.979Z,93843.03
2019-04-16T08:08:15.295Z,93844.86
2019-04-16T08:10:48.230Z,93845.61
2019-04-16T08:13:22.995Z,93843.57
2019-04-16T08:15:58.305Z,93834.97
2019-04-16T08:18:31.436Z,93839.20
2019-04-16T08:21:10.188Z,93833.28
2019-04-16T08:23:40.482Z,93840.45
2019-04-16T08:26:13.923Z,93843.50
2019-04-16T08:28:46.994Z,93832.42
2019-04-16T08:31:21.526Z,93837.83
2019-04-16T08:33:54.286Z,93832.00
2019-04-16T08:36:27.287Z,93832.91
2019-04-16T08:39:00.187Z,93837.33
2019-04-16T08:41:33.313Z,93833.26
2019-04-16T08:44:09.633Z,93821.52
2019-04-16T08:46:41.319Z,93827.34
2019-04-16T08:49:15.247Z,93828.67
2019-04-16T08:51:48.486Z,93830.95
2019-04-16T08:54:22.008Z,93834.52
2019-04-16T08:56:54.869Z,93827.33
2019-04-16T08:59:27.915Z,93832.39
2019-04-16T09:02:01.354Z,93836.59
2019-04-16T09:04:35.259Z,93830.53
2019-04-16T09:07:12.993Z,93832.64
2019-04-16T09:09:46.408Z,93828.39
2019-04-16T09:12:19.394Z,93830.33
2019-04-16T09:14:56.005Z,93831.30
2019-04-16T09:17:29.126Z,93822.13
2019-04-16T09:20:05.151Z,93830.10
2019-04-16T09:22:48.842Z,93827.20
2019-04-16T09:25:21.919Z,93833.83
2019-04-16T09:28:00.752Z,93830.09
2019-04-16T09:30:35.234Z,93831.62
2019-04-16T09:33:16.006Z,93826.92
2019-04-16T09:35:53.305Z,93822.64
2019-04-16T09:38:33.221Z,93818.16
2019-04-16T09:41:10.729Z,93819.36
2019-04-16T09:43:48.003Z,93821.92
2019-04-16T09:46:31.492Z,93825.48
2019-04-16T09:48:55.406Z,93820.02
2019-04-16T09:51:28.826Z,93818.21
2019-04-16T09:54:01.829Z,93818.75
2019-04-16T09:56:35.016Z,93811.73
2019-04-16T09:59:10.958Z,93810.59
2019-04-16T10:01:51.774Z,93801.30
2019-04-16T10:04:24.936Z,93808.76
2019-04-16T10:06:57.975Z,93805.48
2019-04-16T10:09:31.496Z,93808.81
2019-04-16T10:12:05.045Z,93801.67
2019-04-16T10:14:39.856Z,93807.25
2019-04-16T10:17:12.959Z,93808.40
2019-04-16T10:19:46.509Z,93810.51
2019-04-16T10:22:20.121Z,93804.07
2019-04-16T10:25:03.771Z,93803.70
2019-04-16T10:27:38.246Z,93802.94
2019-04-16T10:30:18.970Z,93800.50
2019-04-16T10:32:52.446Z,93806.14
2019-04-16T10:35:25.772Z,93808.69
2019-04-16T10:38:00.277Z,93803.02
2019-04-16T10:40:37.911Z,93799.82
2019-04-16T10:43:27.520Z,93806.72
2019-04-16T10:46:04.549Z,93804.27
2019-04-16T10:48:44.986Z,93814.39
2019-04-16T10:51:26.113Z,93798.34
2019-04-16T10:56:47.707Z,93790.06
2019-04-16T10:59:40.351Z,93784.13
2019-04-16T11:02:12.925Z,93788.55
2019-04-16T11:04:47.525Z,93790.56
2019-04-16T11:07:22.252Z,93787.01
2019-04-16T11:09:55.457Z,93784.62
2019-04-16T11:12:28.422Z,93784.33
2019-04-16T11:15:01.218Z,93788.38
2019-04-16T11:17:34.327Z,93787.39
2019-04-16T11:20:07.256Z,93789.34
2019-04-16T11:22:40.079Z,93786.72
2019-04-16T11:25:13.066Z,93788.30
2019-04-16T11:27:45.942Z,93778.47
2019-04-16T11:30:29.738Z,93774.02
2019-04-16T11:33:02.568Z,93771.08
2019-04-16T11:35:35.505Z,93777.75
2019-04-16T11:38:08.449Z,93780.13
2019-04-16T11:40:41.510Z,93774.47
2019-04-16T11:43:14.469Z,93776.36
2019-04-16T11:45:47.497Z,93777.20
2019-04-16T11:48:20.403Z,93778.23
2019-04-16T11:50:53.306Z,93786.90
2019-04-16T11:53:26.212Z,93777.09
2019-04-16T11:55:59.289Z,93774.41
2019-04-16T11:58:34.877Z,93771.56
2019-04-16T12:01:09.402Z,93767.44
2019-04-16T12:04:00.079Z,93760.10
2019-04-16T12:06:51.149Z,93761.41
2019-04-16T12:09:43.861Z,93756.43
2019-04-16T12:12:34.662Z,93756.95
2019-04-16T12:15:11.318Z,93749.80
2019-04-16T12:18:00.882Z,93754.09
2019-04-16T12:20:50.755Z,93741.95
2019-04-16T12:23:26.099Z,93753.03
2019-04-16T12:26:16.467Z,93744.86
2019-04-16T12:28:55.354Z,93744.83
2019-04-16T12:31:48.043Z,93736.47
2019-04-16T12:34:23.628Z,93735.09
2019-04-16T12:37:13.875Z,93730.08
2019-04-16T12:40:04.495Z,93734.75
2019-04-16T12:42:42.199Z,93734.97
2019-04-16T12:45:18.054Z,93741.16
2019-04-16T12:47:59.130Z,93735.13
2019-04-16T12:50:40.321Z,93742.30
2019-04-16T12:53:14.675Z,93737.03
2019-04-16T12:55:49.189Z,93735.87
2019-04-16T12:58:25.568Z,93735.71
2019-04-16T13:01:14.686Z,93731.80
2019-04-16T13:03:52.605Z,93730.06
2019-04-16T13:06:32.687Z,93734.02
2019-04-16T13:09:17.196Z,93733.31
2019-04-16T13:12:01.215Z,93724.38
2019-04-16T13:14:42.907Z,93724.71
2019-04-16T13:17:33.826Z,93723.70
2019-04-16T13:20:08.306Z,93719.72
2019-04-16T13:22:45.669Z,93719.78
2019-04-16T13:25:23.295Z,93715.83
2019-04-16T13:27:56.466Z,93717.59
2019-04-16T13:30:29.226Z,93712.91
2019-04-16T13:33:02.383Z,93713.03
2019-04-16T13:35:35.450Z,93704.87
2019-04-16T13:38:10.149Z,93705.59
2019-04-16T13:40:43.967Z,93712.60
2019-04-16T13:43:33.749Z,93711.08
2019-04-16T13:46:07.567Z,93717.12
2019-04-16T13:48:48.273Z,93706.20
2019-04-16T13:51:22.794Z,93707.99
2019-04-16T13:54:00.381Z,93703.67
2019-04-16T13:56:35.347Z,93705.70
2019-04-16T13:59:10.026Z,93703.56
2019-04-16T14:01:45.979Z,93702.14
2019-04-16T14:04:19.230Z,93698.37
2019-04-16T14:06:52.526Z,93698.63
2019-04-16T14:09:25.801Z,93700.53
2019-04-16T14:11:58.949Z,93701.69
2019-04-16T14:14:32.290Z,93700.69
2019-04-16T14:17:10.063Z,93701.17
2019-04-16T14:19:40.407Z,93700.59
2019-04-16T14:22:13.296Z,93694.62
2019-04-16T14:24:46.266Z,93700.61
2019-04-16T14:27:19.254Z,93696.95
2019-04-16T14:29:52.586Z,93698.80
2019-04-16T14:32:25.426Z,93699.66
2019-04-16T14:35:00.307Z,93694.56
2019-04-16T14:37:33.754Z,93691.34
2019-04-16T14:40:25.470Z,93690.48
2019-04-16T14:42:58.724Z,93685.64
2019-04-16T14:45:57.035Z,93694.69
2019-04-16T14:48:17.206Z,93695.39
2019-04-16T14:50:50.187Z,93687.94
2019-04-16T14:53:40.168Z,93692.54
2019-04-16T14:56:17.630Z,93692.69
2019-04-16T14:58:52.171Z,93685.25
2019-04-16T15:01:32.750Z,93698.06
2019-04-16T15:04:19.170Z,93693.05
2019-04-16T15:06:56.788Z,93691.20
2019-04-16T15:09:35.288Z,93689.53
2019-04-16T15:12:08.543Z,93687.39
2019-04-16T15:14:59.890Z,93688.98
2019-04-16T15:17:32.829Z,93684.55
2019-04-16T15:20:07.288Z,93687.21
2019-04-16T15:22:41.697Z,93687.52
2019-04-16T15:25:21.968Z,93689.47
2019-04-16T15:28:02.462Z,93692.86
2019-04-16T15:30:42.948Z,93693.57
2019-04-16T15:33:17.449Z,93690.67
2019-04-16T15:35:51.948Z,93698.63
2019-04-16T15:38:26.613Z,93692.39
2019-04-16T15:41:17.836Z,93701.51
2019-04-16T15:44:08.569Z,93698.17
2019-04-16T15:46:48.889Z,93699.13
2019-04-16T15:49:39.548Z,93701.50
2019-04-16T15:52:19.868Z,93697.55
2019-04-16T15:54:54.410Z,93698.77
2019-04-16T15:57:45.029Z,93703.10
2019-04-16T16:00:35.489Z,93703.98
2019-04-16T16:03:10.046Z,93705.05
2019-04-16T16:05:59.794Z,93705.22
2019-04-16T16:08:35.839Z,93712.52
2019-04-16T16:11:22.391Z,93704.84
2019-04-16T16:13:56.638Z,93704.48
2019-04-16T16:16:41.546Z,93706.88
2019-04-16T16:19:04.951Z,93706.39
2019-04-16T16:21:38.248Z,93703.88
2019-04-16T16:24:11.205Z,93697.54
2019-04-16T16:26:44.626Z,93708.05
2019-04-16T16:29:17.685Z,93704.63
2019-04-16T16:31:50.646Z,93707.00
2019-04-16T16:34:24.193Z,93706.61
2019-04-16T16:36:57.014Z,93712.27
2019-04-16T16:39:30.027Z,93721.98
2019-04-16T16:42:03.217Z,93717.20
2019-04-16T16:44:36.134Z,93722.78
2019-04-16T16:47:13.607Z,93721.30
2019-04-16T16:49:46.615Z,93725.92
2019-04-16T16:52:24.048Z,93724.56
2019-04-16T16:54:58.490Z,93724.91
2019-04-16T16:57:33.168Z,93727.87
2019-04-16T17:00:24.110Z,93730.67
2019-04-16T17:03:13.470Z,93731.28
2019-04-16T17:05:46.306Z,93728.61
2019-04-16T17:08:19.294Z,93731.36
2019-04-16T17:10:52.228Z,93728.13
2019-04-16T17:13:25.285Z,93732.77
2019-04-16T17:15:58.225Z,93730.21
2019-04-16T17:18:31.095Z,93730.84
2019-04-16T17:21:06.987Z,93730.91
2019-04-16T17:26:15.493Z,93741.34
2019-04-16T17:28:45.546Z,93745.66
2019-04-16T17:31:18.655Z,93737.01
2019-04-16T17:33:51.394Z,93742.63
2019-04-16T17:36:24.247Z,93746.30
2019-04-16T17:38:57.894Z,93749.30
2019-04-16T17:41:35.056Z,93752.00
2019-04-16T17:44:21.936Z,93755.69
2019-04-16T17:47:02.107Z,93762.02
2019-04-16T17:49:45.247Z,93769.91
2019-04-16T17:52:17.914Z,93766.47
2019-04-16T17:54:58.506Z,93762.98
2019-04-16T17:57:36.287Z,93764.56
2019-04-16T18:00:19.985Z,93769.02
2019-04-16T18:02:54.672Z,93769.28
2019-04-16T18:05:30.548Z,93771.80
2019-04-16T18:08:14.130Z,93774.67
2019-04-16T18:10:54.867Z,93788.98
2019-04-16T18:13:44.412Z,93779.44
2019-04-16T18:16:23.573Z,93782.53
2019-04-16T18:19:14.363Z,93792.24
2019-04-16T18:22:07.047Z,93792.71
2019-04-16T18:24:44.776Z,93794.09
2019-04-16T18:27:35.467Z,93796.47
2019-04-16T18:30:15.966Z,93794.09
2019-04-16T18:33:07.371Z,93799.41
2019-04-16T18:35:53.654Z,93804.16
2019-04-16T18:38:26.345Z,93803.39
2019-04-16T18:41:07.991Z,93803.64
2019-04-16T18:43:52.827Z,93800.52
2019-04-16T18:46:43.347Z,93802.69
2019-04-16T18:49:20.474Z,93804.36
2019-04-16T18:51:56.093Z,93810.45
2019-04-16T18:54:28.959Z,93812.63
2019-04-16T18:57:01.777Z,93815.10
2019-04-16T18:59:34.794Z,93817.74
2019-04-16T19:02:09.752Z,93818.61
2019-04-16T19:04:43.447Z,93821.21
2019-04-16T19:07:16.547Z,93823.84
2019-04-16T19:09:49.426Z,93822.75
2019-04-16T19:12:22.410Z,93827.97
2019-04-16T19:14:55.667Z,93828.13
2019-04-16T19:17:28.934Z,93829.77
2019-04-16T19:20:04.327Z,93840.08
2019-04-16T19:22:36.655Z,93838.69
2019-04-16T19:25:09.574Z,93837.39
2019-04-16T19:27:42.906Z,93838.02
2019-04-16T19:30:15.766Z,93841.93
2019-04-16T19:32:48.807Z,93838.77
2019-04-16T19:35:22.623Z,93841.86
2019-04-16T19:37:56.713Z,93842.89
2019-04-16T19:40:29.726Z,93849.41
2019-04-16T19:43:03.543Z,93851.92
2019-04-16T19:45:37.547Z,93850.69
2019-04-16T19:48:10.526Z,93853.31
2019-04-16T19:50:43.228Z,93849.72
2019-04-16T19:53:16.317Z,93849.66
2019-04-16T19:55:49.386Z,93846.45
2019-04-16T19:58:22.467Z,93851.77
2019-04-16T20:00:57.755Z,93856.27
2019-04-16T20:03:31.361Z,93852.54
2019-04-16T20:06:05.918Z,93853.00
2019-04-16T20:08:40.006Z,93855.34
2019-04-16T20:11:13.609Z,93855.52
2019-04-16T20:13:46.727Z,93855.86
2019-04-16T20:16:20.327Z,93855.97
2019-04-16T20:18:53.426Z,93855.59
2019-04-16T20:21:26.289Z,93861.22
2019-04-16T20:24:00.215Z,93858.06
2019-04-16T20:26:33.619Z,93861.70
2019-04-16T20:29:07.446Z,93861.49
2019-04-16T20:31:40.270Z,93862.39
2019-04-16T20:34:13.332Z,93864.28
2019-04-16T20:36:47.527Z,93865.41
2019-04-16T20:39:20.406Z,93875.48
2019-04-16T20:41:58.766Z,93871.19
2019-04-16T20:44:28.946Z,93870.80
2019-04-16T20:47:07.303Z,93867.74
2019-04-16T20:49:38.006Z,93868.56
2019-04-16T20:52:10.813Z,93865.98
2019-04-16T20:54:45.465Z,93872.17
2019-04-16T20:57:18.367Z,93874.84
2019-04-16T20:59:51.826Z,93872.94
2019-04-16T21:02:26.354Z,93879.19
2019-04-16T21:05:02.693Z,93874.31
2019-04-16T21:07:33.726Z,93882.16
2019-04-16T21:10:07.107Z,93883.44
2019-04-16T21:12:45.099Z,93884.20
2019-04-16T21:15:16.079Z,93884.08
2019-04-16T21:17:49.447Z,93885.92
2019-04-16T21:20:22.366Z,93878.77
2019-04-16T21:22:57.626Z,93876.04
2019-04-16T21:25:30.214Z,93877.49
2019-04-16T21:28:13.552Z,93877.70
2019-04-16T21:30:47.940Z,93877.42
2019-04-16T21:33:34.586Z,93872.05
2019-04-16T21:36:27.226Z,93882.27
2019-04-16T21:39:07.866Z,93876.38
2019-04-16T21:41:40.874Z,93871.01
2019-04-16T21:44:13.886Z,93875.36
2019-04-16T21:46:51.785Z,93876.25
2019-04-16T21:49:21.376Z,93878.59
2019-04-16T21:52:09.345Z,93879.41
2019-04-16T21:54:42.728Z,93881.02
2019-04-16T21:57:16.249Z,93877.39
2019-04-16T21:59:50.333Z,93883.05
2019-04-16T22:02:31.050Z,93883.02
2019-04-16T22:05:03.835Z,93880.45
2019-04-16T22:07:36.668Z,93887.20
2019-04-16T22:10:09.466Z,93882.90
2019-04-16T22:12:44.720Z,93881.89
2019-04-16T22:15:17.607Z,93886.69
2019-04-16T22:17:50.545Z,93886.33
2019-04-16T22:20:23.447Z,93888.84
2019-04-16T22:22:56.732Z,93888.06
2019-04-16T22:25:30.335Z,93885.53
2019-04-16T22:28:03.186Z,93888.20
2019-04-16T22:30:37.953Z,93892.58
2019-04-16T22:33:11.645Z,93886.59
2019-04-16T22:35:44.427Z,93888.34
2019-04-16T22:38:17.826Z,93882.01
2019-04-16T22:40:56.094Z,93884.50
2019-04-16T22:43:46.287Z,93882.95
2019-04-16T22:46:20.951Z,93887.82
2019-04-16T22:48:58.394Z,93880.41
2019-04-16T22:51:31.469Z,93881.77
2019-04-16T22:54:04.226Z,93868.69
2019-04-16T22:56:38.772Z,93879.89
2019-04-16T22:59:11.646Z,93873.36
2019-04-16T23:01:52.930Z,93873.16
2019-04-16T23:04:26.165Z,93872.22
2019-04-16T23:06:58.532Z,93868.27
2019-04-16T23:09:31.446Z,93877.22
2019-04-16T23:12:04.332Z,93879.91
2019-04-16T23:14:37.166Z,93876.17
2019-04-16T23:17:13.177Z,93872.09
2019-04-16T23:19:45.986Z,93871.11
2019-04-16T23:22:19.206Z,93875.79
2019-04-16T23:24:55.355Z,93870.08
2019-04-16T23:27:27.646Z,93868.80
2019-04-16T23:30:01.076Z,93872.40
2019-04-16T23:32:33.988Z,93868.80
2019-04-16T23:35:10.803Z,93871.77
2019-04-16T23:37:41.627Z,93874.86
2019-04-16T23:40:14.607Z,93867.34
2019-04-16T23:42:50.433Z,93868.48
2019-04-16T23:45:31.118Z,93872.17
2019-04-16T23:48:18.926Z,93869.67
2019-04-16T23:51:11.586Z,93867.00
2019-04-16T23:53:44.246Z,93864.25
2019-04-16T23:56:17.873Z,93860.94
2019-04-16T23:59:04.508Z,93868.80
